sensor_id;sensor_type;location;lat;lon;timestamp;temperature;humidity
20498;DHT22;10407;53.238;10.448;2023-06-10T00:00:45;16.00;99.90
20498;DHT22;10407;53.238;10.448;2023-06-10T00:03:12;16.40;99.90
20498;DHT22;10407;53.238;10.448;2023-06-10T00:05:40;15.90;99.90
20498;DHT22;10407;53.238;10.448;2023-06-10T00:08:08;15.60;99.90
20498;DHT22;10407;53.238;10.448;2023-06-10T00:10:37;15.70;99.90
20498;DHT22;10407;53.238;10.448;2023-06-10T00:13:06;16.20;99.90
20498;DHT22;10407;53.238;10.448;2023-06-10T00:15:38;15.70;99.90
20498;DHT22;10407;53.238;10.448;2023-06-10T00:18:06;15.70;99.90
20498;DHT22;10407;53.238;10.448;2023-06-10T00:20:35;15.70;99.90
20498;DHT22;10407;53.238;10.448;2023-06-10T00:23:04;15.50;99.90
20498;DHT22;10407;53.238;10.448;2023-06-10T00:25:33;15.20;99.90
20498;DHT22;10407;53.238;10.448;2023-06-10T00:28:01;15.40;99.90
20498;DHT22;10407;53.238;10.448;2023-06-10T00:30:28;15.10;99.90
20498;DHT22;10407;53.238;10.448;2023-06-10T00:32:56;15.40;99.90
20498;DHT22;10407;53.238;10.448;2023-06-10T00:35:24;15.30;99.90
20498;DHT22;10407;53.238;10.448;2023-06-10T00:37:51;15.70;99.90
20498;DHT22;10407;53.238;10.448;2023-06-10T00:40:19;15.80;99.90
20498;DHT22;10407;53.238;10.448;2023-06-10T00:42:46;16.20;99.90
20498;DHT22;10407;53.238;10.448;2023-06-10T00:45:14;15.80;99.90
20498;DHT22;10407;53.238;10.448;2023-06-10T00:47:41;15.30;99.90
20498;DHT22;10407;53.238;10.448;2023-06-10T00:50:09;15.40;99.90
20498;DHT22;10407;53.238;10.448;2023-06-10T00:52:37;15.40;99.90
20498;DHT22;10407;53.238;10.448;2023-06-10T00:55:05;15.10;99.90
20498;DHT22;10407;53.238;10.448;2023-06-10T00:57:34;15.10;99.90
20498;DHT22;10407;53.238;10.448;2023-06-10T01:00:01;15.10;99.90
20498;DHT22;10407;53.238;10.448;2023-06-10T01:02:31;14.90;99.90
20498;DHT22;10407;53.238;10.448;2023-06-10T01:04:59;15.10;99.90
20498;DHT22;10407;53.238;10.448;2023-06-10T01:10:38;15.50;99.90
20498;DHT22;10407;53.238;10.448;2023-06-10T01:13:02;14.80;99.90
20498;DHT22;10407;53.238;10.448;2023-06-10T01:15:31;14.40;99.90
20498;DHT22;10407;53.238;10.448;2023-06-10T01:18:04;14.60;99.90
20498;DHT22;10407;53.238;10.448;2023-06-10T01:20:34;14.90;99.90
20498;DHT22;10407;53.238;10.448;2023-06-10T01:23:03;15.00;99.90
20498;DHT22;10407;53.238;10.448;2023-06-10T01:25:31;15.30;99.90
20498;DHT22;10407;53.238;10.448;2023-06-10T01:30:41;15.00;99.90
20498;DHT22;10407;53.238;10.448;2023-06-10T01:33:06;15.40;99.90
20498;DHT22;10407;53.238;10.448;2023-06-10T01:35:36;14.90;99.90
20498;DHT22;10407;53.238;10.448;2023-06-10T01:38:06;14.80;99.90
20498;DHT22;10407;53.238;10.448;2023-06-10T01:40:35;14.80;99.90
20498;DHT22;10407;53.238;10.448;2023-06-10T01:43:03;14.60;99.90
20498;DHT22;10407;53.238;10.448;2023-06-10T01:45:30;14.90;99.90
20498;DHT22;10407;53.238;10.448;2023-06-10T01:47:58;14.30;99.90
20498;DHT22;10407;53.238;10.448;2023-06-10T01:50:25;14.70;99.90
20498;DHT22;10407;53.238;10.448;2023-06-10T01:52:53;14.30;99.90
20498;DHT22;10407;53.238;10.448;2023-06-10T01:55:21;14.50;99.90
20498;DHT22;10407;53.238;10.448;2023-06-10T01:57:48;14.10;99.90
20498;DHT22;10407;53.238;10.448;2023-06-10T02:00:16;14.20;99.90
20498;DHT22;10407;53.238;10.448;2023-06-10T02:02:43;14.40;99.90
20498;DHT22;10407;53.238;10.448;2023-06-10T02:05:11;14.60;99.90
20498;DHT22;10407;53.238;10.448;2023-06-10T02:07:38;15.20;99.90
20498;DHT22;10407;53.238;10.448;2023-06-10T02:10:07;15.20;99.90
20498;DHT22;10407;53.238;10.448;2023-06-10T02:12:35;15.00;99.90
20498;DHT22;10407;53.238;10.448;2023-06-10T02:15:02;14.60;99.90
20498;DHT22;10407;53.238;10.448;2023-06-10T02:17:30;14.60;99.90
20498;DHT22;10407;53.238;10.448;2023-06-10T02:19:59;14.60;99.90
20498;DHT22;10407;53.238;10.448;2023-06-10T02:22:28;14.20;99.90
20498;DHT22;10407;53.238;10.448;2023-06-10T02:24:55;13.90;99.90
20498;DHT22;10407;53.238;10.448;2023-06-10T02:27:23;14.00;99.90
20498;DHT22;10407;53.238;10.448;2023-06-10T02:29:51;14.00;99.90
20498;DHT22;10407;53.238;10.448;2023-06-10T02:32:18;14.40;99.90
20498;DHT22;10407;53.238;10.448;2023-06-10T02:34:46;14.30;99.90
20498;DHT22;10407;53.238;10.448;2023-06-10T02:37:15;14.30;99.90
20498;DHT22;10407;53.238;10.448;2023-06-10T02:39:43;14.40;99.90
20498;DHT22;10407;53.238;10.448;2023-06-10T02:42:11;14.20;99.90
20498;DHT22;10407;53.238;10.448;2023-06-10T02:44:38;15.10;99.90
20498;DHT22;10407;53.238;10.448;2023-06-10T02:47:06;15.20;99.90
20498;DHT22;10407;53.238;10.448;2023-06-10T02:49:33;15.30;99.90
20498;DHT22;10407;53.238;10.448;2023-06-10T02:52:01;14.40;99.90
20498;DHT22;10407;53.238;10.448;2023-06-10T02:54:29;14.10;99.90
20498;DHT22;10407;53.238;10.448;2023-06-10T02:56:56;14.60;99.90
20498;DHT22;10407;53.238;10.448;2023-06-10T02:59:24;14.60;99.90
20498;DHT22;10407;53.238;10.448;2023-06-10T03:01:53;14.30;99.90
20498;DHT22;10407;53.238;10.448;2023-06-10T03:04:20;14.60;99.90
20498;DHT22;10407;53.238;10.448;2023-06-10T03:06:50;14.10;99.90
20498;DHT22;10407;53.238;10.448;2023-06-10T03:09:17;14.60;99.90
20498;DHT22;10407;53.238;10.448;2023-06-10T03:11:45;14.30;99.90
20498;DHT22;10407;53.238;10.448;2023-06-10T03:14:12;14.90;99.90
20498;DHT22;10407;53.238;10.448;2023-06-10T03:16:40;15.00;99.90
20498;DHT22;10407;53.238;10.448;2023-06-10T03:19:09;14.70;99.90
20498;DHT22;10407;53.238;10.448;2023-06-10T03:21:36;14.50;99.90
20498;DHT22;10407;53.238;10.448;2023-06-10T03:24:05;14.30;99.90
20498;DHT22;10407;53.238;10.448;2023-06-10T03:26:32;14.40;99.90
20498;DHT22;10407;53.238;10.448;2023-06-10T03:29:00;14.10;99.90
20498;DHT22;10407;53.238;10.448;2023-06-10T03:31:27;14.70;99.90
20498;DHT22;10407;53.238;10.448;2023-06-10T03:33:55;14.90;99.90
20498;DHT22;10407;53.238;10.448;2023-06-10T03:36:24;14.60;99.90
20498;DHT22;10407;53.238;10.448;2023-06-10T03:38:54;15.10;99.90
20498;DHT22;10407;53.238;10.448;2023-06-10T03:41:23;15.10;99.90
20498;DHT22;10407;53.238;10.448;2023-06-10T03:43:51;14.80;99.90
20498;DHT22;10407;53.238;10.448;2023-06-10T03:46:19;14.60;99.90
20498;DHT22;10407;53.238;10.448;2023-06-10T03:48:47;15.10;99.90
20498;DHT22;10407;53.238;10.448;2023-06-10T03:51:15;15.60;99.90
20498;DHT22;10407;53.238;10.448;2023-06-10T03:53:42;15.70;99.90
20498;DHT22;10407;53.238;10.448;2023-06-10T03:56:10;15.80;99.90
20498;DHT22;10407;53.238;10.448;2023-06-10T03:58:38;15.40;99.90
20498;DHT22;10407;53.238;10.448;2023-06-10T04:01:05;15.90;99.90
20498;DHT22;10407;53.238;10.448;2023-06-10T04:03:33;15.60;99.90
20498;DHT22;10407;53.238;10.448;2023-06-10T04:06:01;15.20;99.90
20498;DHT22;10407;53.238;10.448;2023-06-10T04:08:29;15.00;99.90
20498;DHT22;10407;53.238;10.448;2023-06-10T04:10:57;15.40;99.90
20498;DHT22;10407;53.238;10.448;2023-06-10T04:13:25;15.50;99.90
20498;DHT22;10407;53.238;10.448;2023-06-10T04:15:53;15.60;99.90
20498;DHT22;10407;53.238;10.448;2023-06-10T04:18:21;15.30;99.90
20498;DHT22;10407;53.238;10.448;2023-06-10T04:20:48;15.40;99.90
20498;DHT22;10407;53.238;10.448;2023-06-10T04:23:16;15.10;99.90
20498;DHT22;10407;53.238;10.448;2023-06-10T04:25:44;14.80;99.90
20498;DHT22;10407;53.238;10.448;2023-06-10T04:28:12;15.00;99.90
20498;DHT22;10407;53.238;10.448;2023-06-10T04:30:39;15.40;99.90
20498;DHT22;10407;53.238;10.448;2023-06-10T04:33:08;14.80;99.90
20498;DHT22;10407;53.238;10.448;2023-06-10T04:35:36;14.80;99.90
20498;DHT22;10407;53.238;10.448;2023-06-10T04:38:03;15.10;99.90
20498;DHT22;10407;53.238;10.448;2023-06-10T04:40:31;15.40;99.90
20498;DHT22;10407;53.238;10.448;2023-06-10T04:42:58;15.40;99.90
20498;DHT22;10407;53.238;10.448;2023-06-10T04:45:26;15.10;99.90
20498;DHT22;10407;53.238;10.448;2023-06-10T04:47:55;15.50;99.90
20498;DHT22;10407;53.238;10.448;2023-06-10T04:50:24;15.30;99.90
20498;DHT22;10407;53.238;10.448;2023-06-10T04:52:52;14.80;99.90
20498;DHT22;10407;53.238;10.448;2023-06-10T04:55:19;14.70;99.90
20498;DHT22;10407;53.238;10.448;2023-06-10T04:57:48;15.00;99.90
20498;DHT22;10407;53.238;10.448;2023-06-10T05:00:17;15.30;99.90
20498;DHT22;10407;53.238;10.448;2023-06-10T05:02:44;15.50;99.90
20498;DHT22;10407;53.238;10.448;2023-06-10T05:05:14;14.70;99.90
20498;DHT22;10407;53.238;10.448;2023-06-10T05:07:41;14.60;99.90
20498;DHT22;10407;53.238;10.448;2023-06-10T05:10:09;14.90;99.90
20498;DHT22;10407;53.238;10.448;2023-06-10T05:12:39;15.40;99.90
20498;DHT22;10407;53.238;10.448;2023-06-10T05:15:08;16.30;99.90
20498;DHT22;10407;53.238;10.448;2023-06-10T05:17:36;16.70;99.90
20498;DHT22;10407;53.238;10.448;2023-06-10T05:20:03;16.50;99.90
20498;DHT22;10407;53.238;10.448;2023-06-10T05:22:31;16.60;99.90
20498;DHT22;10407;53.238;10.448;2023-06-10T05:24:59;16.40;99.90
20498;DHT22;10407;53.238;10.448;2023-06-10T05:27:26;15.40;99.90
20498;DHT22;10407;53.238;10.448;2023-06-10T05:29:54;15.70;99.90
20498;DHT22;10407;53.238;10.448;2023-06-10T05:32:21;15.60;99.90
20498;DHT22;10407;53.238;10.448;2023-06-10T05:34:49;16.60;99.90
20498;DHT22;10407;53.238;10.448;2023-06-10T05:37:16;16.40;99.90
20498;DHT22;10407;53.238;10.448;2023-06-10T05:39:44;17.40;99.90
20498;DHT22;10407;53.238;10.448;2023-06-10T05:42:11;17.40;99.90
20498;DHT22;10407;53.238;10.448;2023-06-10T05:44:39;18.10;99.40
20498;DHT22;10407;53.238;10.448;2023-06-10T05:47:07;19.40;93.00
20498;DHT22;10407;53.238;10.448;2023-06-10T05:49:34;22.60;71.30
20498;DHT22;10407;53.238;10.448;2023-06-10T05:52:02;25.20;52.50
20498;DHT22;10407;53.238;10.448;2023-06-10T05:54:29;25.30;44.20
20498;DHT22;10407;53.238;10.448;2023-06-10T05:56:57;24.70;44.30
20498;DHT22;10407;53.238;10.448;2023-06-10T05:59:25;23.60;46.70
20498;DHT22;10407;53.238;10.448;2023-06-10T06:01:53;22.80;49.20
20498;DHT22;10407;53.238;10.448;2023-06-10T06:04:20;24.00;50.90
20498;DHT22;10407;53.238;10.448;2023-06-10T06:06:48;24.70;46.00
20498;DHT22;10407;53.238;10.448;2023-06-10T06:09:15;24.30;47.50
20498;DHT22;10407;53.238;10.448;2023-06-10T06:11:43;24.60;43.80
20498;DHT22;10407;53.238;10.448;2023-06-10T06:14:10;23.40;47.30
20498;DHT22;10407;53.238;10.448;2023-06-10T06:16:38;24.20;45.20
20498;DHT22;10407;53.238;10.448;2023-06-10T06:19:06;25.00;41.30
20498;DHT22;10407;53.238;10.448;2023-06-10T06:21:34;25.20;36.10
20498;DHT22;10407;53.238;10.448;2023-06-10T06:24:01;26.10;32.90
20498;DHT22;10407;53.238;10.448;2023-06-10T06:26:29;25.00;36.50
20498;DHT22;10407;53.238;10.448;2023-06-10T06:28:56;27.10;30.80
20498;DHT22;10407;53.238;10.448;2023-06-10T06:31:24;27.50;27.40
20498;DHT22;10407;53.238;10.448;2023-06-10T06:33:51;27.50;24.90
20498;DHT22;10407;53.238;10.448;2023-06-10T06:36:19;25.60;29.70
20498;DHT22;10407;53.238;10.448;2023-06-10T06:38:46;24.40;32.90
20498;DHT22;10407;53.238;10.448;2023-06-10T06:41:14;22.20;46.30
20498;DHT22;10407;53.238;10.448;2023-06-10T06:43:41;21.60;54.80
20498;DHT22;10407;53.238;10.448;2023-06-10T06:46:09;21.30;61.60
20498;DHT22;10407;53.238;10.448;2023-06-10T06:48:37;22.20;58.60
20498;DHT22;10407;53.238;10.448;2023-06-10T06:51:04;22.80;54.70
20498;DHT22;10407;53.238;10.448;2023-06-10T06:53:32;23.00;51.30
20498;DHT22;10407;53.238;10.448;2023-06-10T06:55:59;24.60;47.00
20498;DHT22;10407;53.238;10.448;2023-06-10T06:58:27;24.80;40.50
20498;DHT22;10407;53.238;10.448;2023-06-10T07:00:54;26.10;39.90
20498;DHT22;10407;53.238;10.448;2023-06-10T07:03:22;24.00;41.30
20498;DHT22;10407;53.238;10.448;2023-06-10T07:05:49;22.40;50.50
20498;DHT22;10407;53.238;10.448;2023-06-10T07:08:17;22.50;56.00
20498;DHT22;10407;53.238;10.448;2023-06-10T07:10:45;23.30;51.30
20498;DHT22;10407;53.238;10.448;2023-06-10T07:13:12;23.00;52.80
20498;DHT22;10407;53.238;10.448;2023-06-10T07:15:40;21.70;60.90
20498;DHT22;10407;53.238;10.448;2023-06-10T07:18:07;21.90;68.50
20498;DHT22;10407;53.238;10.448;2023-06-10T07:20:35;22.30;60.60
20498;DHT22;10407;53.238;10.448;2023-06-10T07:23:02;22.50;61.50
20498;DHT22;10407;53.238;10.448;2023-06-10T07:25:30;22.40;58.60
20498;DHT22;10407;53.238;10.448;2023-06-10T07:27:58;21.90;67.30
20498;DHT22;10407;53.238;10.448;2023-06-10T07:30:25;22.70;58.10
20498;DHT22;10407;53.238;10.448;2023-06-10T07:32:53;21.30;68.50
20498;DHT22;10407;53.238;10.448;2023-06-10T07:35:20;22.60;61.90
20498;DHT22;10407;53.238;10.448;2023-06-10T07:37:48;23.50;58.20
20498;DHT22;10407;53.238;10.448;2023-06-10T07:40:15;22.70;59.40
20498;DHT22;10407;53.238;10.448;2023-06-10T07:42:43;23.50;58.30
20498;DHT22;10407;53.238;10.448;2023-06-10T07:45:11;23.80;55.60
20498;DHT22;10407;53.238;10.448;2023-06-10T07:47:38;24.10;53.30
20498;DHT22;10407;53.238;10.448;2023-06-10T07:50:06;24.10;54.20
20498;DHT22;10407;53.238;10.448;2023-06-10T07:52:34;22.70;57.70
20498;DHT22;10407;53.238;10.448;2023-06-10T07:55:02;23.00;58.80
20498;DHT22;10407;53.238;10.448;2023-06-10T07:57:29;24.30;54.60
20498;DHT22;10407;53.238;10.448;2023-06-10T07:59:58;22.90;58.30
20498;DHT22;10407;53.238;10.448;2023-06-10T08:02:26;23.60;55.20
20498;DHT22;10407;53.238;10.448;2023-06-10T08:04:54;24.50;52.60
20498;DHT22;10407;53.238;10.448;2023-06-10T08:07:21;23.90;53.70
20498;DHT22;10407;53.238;10.448;2023-06-10T08:09:49;22.60;56.80
20498;DHT22;10407;53.238;10.448;2023-06-10T08:12:16;22.90;59.00
20498;DHT22;10407;53.238;10.448;2023-06-10T08:14:45;22.60;63.70
20498;DHT22;10407;53.238;10.448;2023-06-10T08:17:12;22.70;62.30
20498;DHT22;10407;53.238;10.448;2023-06-10T08:19:39;24.10;56.30
20498;DHT22;10407;53.238;10.448;2023-06-10T08:22:07;25.10;53.60
20498;DHT22;10407;53.238;10.448;2023-06-10T08:24:35;25.60;52.00
20498;DHT22;10407;53.238;10.448;2023-06-10T08:27:02;25.70;46.50
20498;DHT22;10407;53.238;10.448;2023-06-10T08:29:30;24.90;50.10
20498;DHT22;10407;53.238;10.448;2023-06-10T08:31:58;25.10;50.80
20498;DHT22;10407;53.238;10.448;2023-06-10T08:34:26;24.70;49.40
20498;DHT22;10407;53.238;10.448;2023-06-10T08:36:53;24.90;50.70
20498;DHT22;10407;53.238;10.448;2023-06-10T08:39:22;25.40;51.20
20498;DHT22;10407;53.238;10.448;2023-06-10T08:42:11;26.00;47.70
20498;DHT22;10407;53.238;10.448;2023-06-10T08:44:40;26.60;46.30
20498;DHT22;10407;53.238;10.448;2023-06-10T08:47:13;26.40;43.10
20498;DHT22;10407;53.238;10.448;2023-06-10T08:49:46;25.10;47.70
20498;DHT22;10407;53.238;10.448;2023-06-10T08:52:22;25.40;47.30
20498;DHT22;10407;53.238;10.448;2023-06-10T08:54:49;25.90;47.30
20498;DHT22;10407;53.238;10.448;2023-06-10T08:57:18;25.20;48.70
20498;DHT22;10407;53.238;10.448;2023-06-10T08:59:49;25.90;48.50
20498;DHT22;10407;53.238;10.448;2023-06-10T09:02:17;24.50;50.70
20498;DHT22;10407;53.238;10.448;2023-06-10T09:04:47;25.20;49.60
20498;DHT22;10407;53.238;10.448;2023-06-10T09:07:16;24.30;52.30
20498;DHT22;10407;53.238;10.448;2023-06-10T09:09:44;24.30;52.60
20498;DHT22;10407;53.238;10.448;2023-06-10T09:12:15;24.40;52.00
20498;DHT22;10407;53.238;10.448;2023-06-10T09:14:43;25.00;53.60
20498;DHT22;10407;53.238;10.448;2023-06-10T09:17:11;26.30;49.80
20498;DHT22;10407;53.238;10.448;2023-06-10T09:19:39;25.50;46.10
20498;DHT22;10407;53.238;10.448;2023-06-10T09:22:07;24.90;50.30
20498;DHT22;10407;53.238;10.448;2023-06-10T09:24:35;25.00;50.50
20498;DHT22;10407;53.238;10.448;2023-06-10T09:27:08;24.40;53.00
20498;DHT22;10407;53.238;10.448;2023-06-10T09:29:53;25.00;51.30
20498;DHT22;10407;53.238;10.448;2023-06-10T09:32:21;25.30;50.30
20498;DHT22;10407;53.238;10.448;2023-06-10T09:34:49;25.70;49.00
20498;DHT22;10407;53.238;10.448;2023-06-10T09:37:22;25.70;49.80
20498;DHT22;10407;53.238;10.448;2023-06-10T09:40:06;26.40;48.70
20498;DHT22;10407;53.238;10.448;2023-06-10T09:42:37;25.60;45.10
20498;DHT22;10407;53.238;10.448;2023-06-10T09:45:06;25.50;48.10
20498;DHT22;10407;53.238;10.448;2023-06-10T09:47:34;24.40;53.60
20498;DHT22;10407;53.238;10.448;2023-06-10T09:50:01;24.80;52.80
20498;DHT22;10407;53.238;10.448;2023-06-10T09:52:29;25.20;51.30
20498;DHT22;10407;53.238;10.448;2023-06-10T09:55:01;26.10;51.00
20498;DHT22;10407;53.238;10.448;2023-06-10T09:57:32;25.80;51.10
20498;DHT22;10407;53.238;10.448;2023-06-10T10:00:21;25.80;48.90
20498;DHT22;10407;53.238;10.448;2023-06-10T10:02:52;24.40;53.60
20498;DHT22;10407;53.238;10.448;2023-06-10T10:05:21;25.50;51.30
20498;DHT22;10407;53.238;10.448;2023-06-10T10:07:50;25.30;52.60
20498;DHT22;10407;53.238;10.448;2023-06-10T10:10:23;25.50;52.10
20498;DHT22;10407;53.238;10.448;2023-06-10T10:12:50;25.10;51.70
20498;DHT22;10407;53.238;10.448;2023-06-10T10:15:18;25.50;52.70
20498;DHT22;10407;53.238;10.448;2023-06-10T10:18:07;25.90;51.90
20498;DHT22;10407;53.238;10.448;2023-06-10T10:20:41;25.60;52.90
20498;DHT22;10407;53.238;10.448;2023-06-10T10:23:07;25.30;53.10
20498;DHT22;10407;53.238;10.448;2023-06-10T10:25:40;25.20;52.50
20498;DHT22;10407;53.238;10.448;2023-06-10T10:28:11;25.50;52.60
20498;DHT22;10407;53.238;10.448;2023-06-10T10:30:54;25.40;53.60
20498;DHT22;10407;53.238;10.448;2023-06-10T10:36:22;27.00;50.00
20498;DHT22;10407;53.238;10.448;2023-06-10T10:38:51;26.20;52.50
20498;DHT22;10407;53.238;10.448;2023-06-10T10:41:19;25.80;51.20
20498;DHT22;10407;53.238;10.448;2023-06-10T10:43:47;25.40;53.40
20498;DHT22;10407;53.238;10.448;2023-06-10T10:46:18;25.90;53.20
20498;DHT22;10407;53.238;10.448;2023-06-10T10:48:47;26.10;49.70
20498;DHT22;10407;53.238;10.448;2023-06-10T10:51:16;26.20;52.00
20498;DHT22;10407;53.238;10.448;2023-06-10T10:53:43;26.10;50.60
20498;DHT22;10407;53.238;10.448;2023-06-10T10:56:15;26.40;48.30
20498;DHT22;10407;53.238;10.448;2023-06-10T10:59:04;26.10;48.20
20498;DHT22;10407;53.238;10.448;2023-06-10T11:01:42;26.80;48.90
20498;DHT22;10407;53.238;10.448;2023-06-10T11:04:12;26.10;49.80
20498;DHT22;10407;53.238;10.448;2023-06-10T11:06:40;26.90;47.80
20498;DHT22;10407;53.238;10.448;2023-06-10T11:09:27;25.80;50.50
20498;DHT22;10407;53.238;10.448;2023-06-10T11:11:51;25.60;50.90
20498;DHT22;10407;53.238;10.448;2023-06-10T11:14:29;26.30;49.20
20498;DHT22;10407;53.238;10.448;2023-06-10T11:16:59;26.30;48.40
20498;DHT22;10407;53.238;10.448;2023-06-10T11:19:33;26.10;47.20
20498;DHT22;10407;53.238;10.448;2023-06-10T11:22:04;26.30;49.60
20498;DHT22;10407;53.238;10.448;2023-06-10T11:24:32;26.60;48.40
20498;DHT22;10407;53.238;10.448;2023-06-10T11:27:17;26.40;46.50
20498;DHT22;10407;53.238;10.448;2023-06-10T11:32:34;26.50;48.10
20498;DHT22;10407;53.238;10.448;2023-06-10T11:35:06;25.70;47.60
20498;DHT22;10407;53.238;10.448;2023-06-10T11:37:34;25.60;46.60
20498;DHT22;10407;53.238;10.448;2023-06-10T11:40:02;26.00;47.50
20498;DHT22;10407;53.238;10.448;2023-06-10T11:42:30;26.80;45.60
20498;DHT22;10407;53.238;10.448;2023-06-10T11:44:58;26.40;46.20
20498;DHT22;10407;53.238;10.448;2023-06-10T11:47:27;27.00;48.50
20498;DHT22;10407;53.238;10.448;2023-06-10T11:49:58;27.40;41.80
20498;DHT22;10407;53.238;10.448;2023-06-10T11:52:30;26.50;43.70
20498;DHT22;10407;53.238;10.448;2023-06-10T11:54:59;25.80;45.80
20498;DHT22;10407;53.238;10.448;2023-06-10T11:57:27;26.30;44.00
20498;DHT22;10407;53.238;10.448;2023-06-10T11:59:54;26.40;44.00
20498;DHT22;10407;53.238;10.448;2023-06-10T12:02:22;26.90;42.20
20498;DHT22;10407;53.238;10.448;2023-06-10T12:04:49;26.70;42.00
20498;DHT22;10407;53.238;10.448;2023-06-10T12:07:18;26.50;43.80
20498;DHT22;10407;53.238;10.448;2023-06-10T12:09:46;26.30;45.90
20498;DHT22;10407;53.238;10.448;2023-06-10T12:12:14;26.60;42.40
20498;DHT22;10407;53.238;10.448;2023-06-10T12:20:05;27.00;40.60
20498;DHT22;10407;53.238;10.448;2023-06-10T12:22:38;26.70;38.80
20498;DHT22;10407;53.238;10.448;2023-06-10T12:25:07;26.80;37.80
20498;DHT22;10407;53.238;10.448;2023-06-10T12:27:35;26.80;39.00
20498;DHT22;10407;53.238;10.448;2023-06-10T12:30:05;26.70;37.40
20498;DHT22;10407;53.238;10.448;2023-06-10T12:32:41;26.70;37.50
20498;DHT22;10407;53.238;10.448;2023-06-10T12:35:11;26.90;37.90
20498;DHT22;10407;53.238;10.448;2023-06-10T12:37:42;26.60;38.00
20498;DHT22;10407;53.238;10.448;2023-06-10T12:40:10;26.70;37.70
20498;DHT22;10407;53.238;10.448;2023-06-10T12:42:38;26.70;38.10
20498;DHT22;10407;53.238;10.448;2023-06-10T12:45:06;26.90;38.40
20498;DHT22;10407;53.238;10.448;2023-06-10T12:47:37;27.10;36.90
20498;DHT22;10407;53.238;10.448;2023-06-10T12:50:07;27.10;36.10
20498;DHT22;10407;53.238;10.448;2023-06-10T12:52:35;27.40;35.70
20498;DHT22;10407;53.238;10.448;2023-06-10T12:55:04;27.60;34.80
20498;DHT22;10407;53.238;10.448;2023-06-10T12:57:32;27.40;35.10
20498;DHT22;10407;53.238;10.448;2023-06-10T12:59:59;27.20;34.20
20498;DHT22;10407;53.238;10.448;2023-06-10T13:02:28;27.00;34.60
20498;DHT22;10407;53.238;10.448;2023-06-10T13:04:56;27.30;33.60
20498;DHT22;10407;53.238;10.448;2023-06-10T13:07:23;27.50;32.10
20498;DHT22;10407;53.238;10.448;2023-06-10T13:09:51;27.50;31.60
20498;DHT22;10407;53.238;10.448;2023-06-10T13:12:19;27.20;32.60
20498;DHT22;10407;53.238;10.448;2023-06-10T13:14:47;27.40;32.00
20498;DHT22;10407;53.238;10.448;2023-06-10T13:17:15;27.50;30.90
20498;DHT22;10407;53.238;10.448;2023-06-10T13:19:43;27.40;31.80
20498;DHT22;10407;53.238;10.448;2023-06-10T13:22:10;27.60;30.30
20498;DHT22;10407;53.238;10.448;2023-06-10T13:24:40;27.60;29.00
20498;DHT22;10407;53.238;10.448;2023-06-10T13:27:10;27.50;29.60
20498;DHT22;10407;53.238;10.448;2023-06-10T13:29:37;27.60;29.20
20498;DHT22;10407;53.238;10.448;2023-06-10T13:32:05;27.70;28.50
20498;DHT22;10407;53.238;10.448;2023-06-10T13:34:33;27.70;29.20
20498;DHT22;10407;53.238;10.448;2023-06-10T13:37:01;27.80;28.70
20498;DHT22;10407;53.238;10.448;2023-06-10T13:39:30;28.00;26.80
20498;DHT22;10407;53.238;10.448;2023-06-10T13:41:57;28.40;26.60
20498;DHT22;10407;53.238;10.448;2023-06-10T13:44:25;28.10;27.30
20498;DHT22;10407;53.238;10.448;2023-06-10T13:46:52;28.00;26.50
20498;DHT22;10407;53.238;10.448;2023-06-10T13:49:20;28.20;27.70
20498;DHT22;10407;53.238;10.448;2023-06-10T13:51:48;28.40;27.00
20498;DHT22;10407;53.238;10.448;2023-06-10T13:54:15;28.60;26.90
20498;DHT22;10407;53.238;10.448;2023-06-10T13:56:43;28.40;26.30
20498;DHT22;10407;53.238;10.448;2023-06-10T13:59:10;28.20;26.70
20498;DHT22;10407;53.238;10.448;2023-06-10T14:01:38;28.10;26.40
20498;DHT22;10407;53.238;10.448;2023-06-10T14:04:07;27.80;25.70
20498;DHT22;10407;53.238;10.448;2023-06-10T14:06:35;27.50;26.20
20498;DHT22;10407;53.238;10.448;2023-06-10T14:09:02;27.30;27.00
20498;DHT22;10407;53.238;10.448;2023-06-10T14:11:31;27.80;26.90
20498;DHT22;10407;53.238;10.448;2023-06-10T14:13:59;28.40;25.90
20498;DHT22;10407;53.238;10.448;2023-06-10T14:16:27;28.50;23.60
20498;DHT22;10407;53.238;10.448;2023-06-10T14:18:55;28.20;23.60
20498;DHT22;10407;53.238;10.448;2023-06-10T14:21:23;27.80;23.80
20498;DHT22;10407;53.238;10.448;2023-06-10T14:23:50;28.10;23.30
20498;DHT22;10407;53.238;10.448;2023-06-10T14:26:20;28.10;24.20
20498;DHT22;10407;53.238;10.448;2023-06-10T14:28:49;28.30;23.40
20498;DHT22;10407;53.238;10.448;2023-06-10T14:31:17;28.20;24.40
20498;DHT22;10407;53.238;10.448;2023-06-10T14:33:44;28.20;23.10
20498;DHT22;10407;53.238;10.448;2023-06-10T14:36:12;28.20;22.40
20498;DHT22;10407;53.238;10.448;2023-06-10T14:38:39;28.30;20.50
20498;DHT22;10407;53.238;10.448;2023-06-10T14:41:07;28.60;20.20
20498;DHT22;10407;53.238;10.448;2023-06-10T14:43:34;28.30;20.50
20498;DHT22;10407;53.238;10.448;2023-06-10T14:46:02;28.40;19.00
20498;DHT22;10407;53.238;10.448;2023-06-10T14:48:30;28.70;19.20
20498;DHT22;10407;53.238;10.448;2023-06-10T14:50:57;28.60;19.90
20498;DHT22;10407;53.238;10.448;2023-06-10T14:53:25;28.20;20.30
20498;DHT22;10407;53.238;10.448;2023-06-10T14:55:53;27.90;21.30
20498;DHT22;10407;53.238;10.448;2023-06-10T14:58:20;28.10;20.90
20498;DHT22;10407;53.238;10.448;2023-06-10T15:00:48;28.20;20.30
20498;DHT22;10407;53.238;10.448;2023-06-10T15:03:15;28.30;20.50
20498;DHT22;10407;53.238;10.448;2023-06-10T15:05:43;28.30;19.40
20498;DHT22;10407;53.238;10.448;2023-06-10T15:08:10;28.10;19.70
20498;DHT22;10407;53.238;10.448;2023-06-10T15:10:38;28.40;19.80
20498;DHT22;10407;53.238;10.448;2023-06-10T15:13:06;28.80;19.20
20498;DHT22;10407;53.238;10.448;2023-06-10T15:15:33;28.50;17.60
20498;DHT22;10407;53.238;10.448;2023-06-10T15:18:01;28.50;17.40
20498;DHT22;10407;53.238;10.448;2023-06-10T15:20:29;28.70;17.30
20498;DHT22;10407;53.238;10.448;2023-06-10T15:22:56;28.60;18.10
20498;DHT22;10407;53.238;10.448;2023-06-10T15:25:24;28.50;16.80
20498;DHT22;10407;53.238;10.448;2023-06-10T15:27:52;28.10;16.70
20498;DHT22;10407;53.238;10.448;2023-06-10T15:30:20;27.90;16.70
20498;DHT22;10407;53.238;10.448;2023-06-10T15:32:47;27.80;17.70
20498;DHT22;10407;53.238;10.448;2023-06-10T15:35:15;27.60;16.80
20498;DHT22;10407;53.238;10.448;2023-06-10T15:37:43;27.60;17.50
20498;DHT22;10407;53.238;10.448;2023-06-10T15:40:10;27.50;17.00